sensor_id;sensor_type;location;lat;lon;timestamp;P1;durP1;ratioP1;P2;durP2;ratioP2
17390;SDS011;8813;54.444;18.446;2023-09-12T00:01:25;1.10;;;1.10;;
17390;SDS011;8813;54.444;18.446;2023-09-12T00:03:52;1.10;;;1.10;;
17390;SDS011;8813;54.444;18.446;2023-09-12T00:06:19;1.10;;;1.10;;
17390;SDS011;8813;54.444;18.446;2023-09-12T00:08:45;1.10;;;1.10;;
17390;SDS011;8813;54.444;18.446;2023-09-12T00:11:12;1.10;;;1.10;;
17390;SDS011;8813;54.444;18.446;2023-09-12T00:13:39;1.10;;;1.10;;
17390;SDS011;8813;54.444;18.446;2023-09-12T00:16:07;1.15;;;1.15;;
17390;SDS011;8813;54.444;18.446;2023-09-12T00:18:37;1.10;;;1.10;;
17390;SDS011;8813;54.444;18.446;2023-09-12T00:21:04;1.17;;;1.17;;
17390;SDS011;8813;54.444;18.446;2023-09-12T00:23:31;1.10;;;1.10;;
17390;SDS011;8813;54.444;18.446;2023-09-12T00:25:58;1.00;;;1.00;;
17390;SDS011;8813;54.444;18.446;2023-09-12T00:28:25;1.00;;;1.00;;
17390;SDS011;8813;54.444;18.446;2023-09-12T00:30:52;1.05;;;1.05;;
17390;SDS011;8813;54.444;18.446;2023-09-12T00:33:19;1.02;;;1.02;;
17390;SDS011;8813;54.444;18.446;2023-09-12T00:35:47;1.10;;;1.10;;
17390;SDS011;8813;54.444;18.446;2023-09-12T00:38:14;1.13;;;1.13;;
17390;SDS011;8813;54.444;18.446;2023-09-12T00:40:41;1.20;;;1.20;;
17390;SDS011;8813;54.444;18.446;2023-09-12T00:43:08;1.20;;;1.20;;
17390;SDS011;8813;54.444;18.446;2023-09-12T00:45:36;1.10;;;1.10;;
17390;SDS011;8813;54.444;18.446;2023-09-12T00:48:03;1.20;;;1.20;;
17390;SDS011;8813;54.444;18.446;2023-09-12T00:50:31;1.10;;;1.10;;
17390;SDS011;8813;54.444;18.446;2023-09-12T00:53:00;1.20;;;1.20;;
17390;SDS011;8813;54.444;18.446;2023-09-12T00:55:28;1.17;;;1.17;;
17390;SDS011;8813;54.444;18.446;2023-09-12T00:57:56;1.20;;;1.20;;
17390;SDS011;8813;54.444;18.446;2023-09-12T01:00:23;1.30;;;1.30;;
17390;SDS011;8813;54.444;18.446;2023-09-12T01:02:50;1.20;;;1.20;;
17390;SDS011;8813;54.444;18.446;2023-09-12T01:05:19;1.20;;;1.20;;
17390;SDS011;8813;54.444;18.446;2023-09-12T01:07:47;1.10;;;1.10;;
17390;SDS011;8813;54.444;18.446;2023-09-12T01:10:15;1.20;;;1.20;;
17390;SDS011;8813;54.444;18.446;2023-09-12T01:12:42;1.13;;;1.13;;
17390;SDS011;8813;54.444;18.446;2023-09-12T01:15:10;1.20;;;1.20;;
17390;SDS011;8813;54.444;18.446;2023-09-12T01:17:39;1.10;;;1.10;;
17390;SDS011;8813;54.444;18.446;2023-09-12T01:20:07;1.10;;;1.10;;
17390;SDS011;8813;54.444;18.446;2023-09-12T01:22:40;1.02;;;1.02;;
17390;SDS011;8813;54.444;18.446;2023-09-12T01:28:10;1.00;;;1.00;;
17390;SDS011;8813;54.444;18.446;2023-09-12T01:30:41;1.10;;;1.10;;
17390;SDS011;8813;54.444;18.446;2023-09-12T01:33:12;1.10;;;1.10;;
17390;SDS011;8813;54.444;18.446;2023-09-12T01:35:38;1.10;;;1.10;;
17390;SDS011;8813;54.444;18.446;2023-09-12T01:38:05;1.10;;;1.10;;
17390;SDS011;8813;54.444;18.446;2023-09-12T01:40:34;1.10;;;1.10;;
17390;SDS011;8813;54.444;18.446;2023-09-12T01:43:05;1.30;;;1.30;;
17390;SDS011;8813;54.444;18.446;2023-09-12T01:45:34;1.20;;;1.20;;
17390;SDS011;8813;54.444;18.446;2023-09-12T01:48:02;1.10;;;1.10;;
17390;SDS011;8813;54.444;18.446;2023-09-12T01:50:31;1.30;;;1.30;;
17390;SDS011;8813;54.444;18.446;2023-09-12T01:52:58;1.20;;;1.20;;
17390;SDS011;8813;54.444;18.446;2023-09-12T01:55:25;1.20;;;1.20;;
17390;SDS011;8813;54.444;18.446;2023-09-12T01:57:55;1.10;;;1.10;;
17390;SDS011;8813;54.444;18.446;2023-09-12T02:00:23;1.10;;;1.10;;
17390;SDS011;8813;54.444;18.446;2023-09-12T02:02:51;1.10;;;1.10;;
17390;SDS011;8813;54.444;18.446;2023-09-12T02:05:20;1.10;;;1.10;;
17390;SDS011;8813;54.444;18.446;2023-09-12T02:07:48;1.15;;;1.15;;
17390;SDS011;8813;54.444;18.446;2023-09-12T02:10:15;1.00;;;1.00;;
17390;SDS011;8813;54.444;18.446;2023-09-12T02:12:42;1.00;;;1.00;;
17390;SDS011;8813;54.444;18.446;2023-09-12T02:15:09;1.00;;;1.00;;
17390;SDS011;8813;54.444;18.446;2023-09-12T02:17:37;1.00;;;1.00;;
17390;SDS011;8813;54.444;18.446;2023-09-12T02:20:07;1.00;;;1.00;;
17390;SDS011;8813;54.444;18.446;2023-09-12T02:22:35;1.00;;;1.00;;
17390;SDS011;8813;54.444;18.446;2023-09-12T02:25:02;0.95;;;0.95;;
17390;SDS011;8813;54.444;18.446;2023-09-12T02:27:30;1.00;;;1.00;;
17390;SDS011;8813;54.444;18.446;2023-09-12T02:29:57;1.00;;;1.00;;
17390;SDS011;8813;54.444;18.446;2023-09-12T02:32:24;1.10;;;1.10;;
17390;SDS011;8813;54.444;18.446;2023-09-12T02:34:51;1.00;;;1.00;;
17390;SDS011;8813;54.444;18.446;2023-09-12T02:37:20;1.00;;;1.00;;
17390;SDS011;8813;54.444;18.446;2023-09-12T02:39:47;0.90;;;0.90;;
17390;SDS011;8813;54.444;18.446;2023-09-12T02:42:14;0.90;;;0.90;;
17390;SDS011;8813;54.444;18.446;2023-09-12T02:44:44;0.93;;;0.93;;
17390;SDS011;8813;54.444;18.446;2023-09-12T02:47:11;0.90;;;0.90;;
17390;SDS011;8813;54.444;18.446;2023-09-12T02:49:38;0.90;;;0.90;;
17390;SDS011;8813;54.444;18.446;2023-09-12T02:52:07;1.05;;;1.05;;
17390;SDS011;8813;54.444;18.446;2023-09-12T02:54:35;0.90;;;0.90;;
17390;SDS011;8813;54.444;18.446;2023-09-12T02:57:02;0.90;;;0.90;;
17390;SDS011;8813;54.444;18.446;2023-09-12T02:59:29;0.90;;;0.90;;
17390;SDS011;8813;54.444;18.446;2023-09-12T03:01:59;0.90;;;0.90;;
17390;SDS011;8813;54.444;18.446;2023-09-12T03:04:26;0.90;;;0.90;;
17390;SDS011;8813;54.444;18.446;2023-09-12T03:06:56;0.80;;;0.80;;
17390;SDS011;8813;54.444;18.446;2023-09-12T03:09:25;1.00;;;1.00;;
17390;SDS011;8813;54.444;18.446;2023-09-12T03:11:54;0.90;;;0.90;;
17390;SDS011;8813;54.444;18.446;2023-09-12T03:14:21;0.90;;;0.90;;
17390;SDS011;8813;54.444;18.446;2023-09-12T03:16:48;1.00;;;1.00;;
17390;SDS011;8813;54.444;18.446;2023-09-12T03:19:15;1.00;;;1.00;;
17390;SDS011;8813;54.444;18.446;2023-09-12T03:21:42;1.10;;;1.10;;
17390;SDS011;8813;54.444;18.446;2023-09-12T03:24:09;0.90;;;0.90;;
17390;SDS011;8813;54.444;18.446;2023-09-12T03:26:36;1.00;;;1.00;;
17390;SDS011;8813;54.444;18.446;2023-09-12T03:29:04;0.90;;;0.90;;
17390;SDS011;8813;54.444;18.446;2023-09-12T03:31:34;1.00;;;1.00;;
17390;SDS011;8813;54.444;18.446;2023-09-12T03:34:02;1.00;;;1.00;;
17390;SDS011;8813;54.444;18.446;2023-09-12T03:36:29;1.00;;;1.00;;
17390;SDS011;8813;54.444;18.446;2023-09-12T03:38:58;0.90;;;0.90;;
17390;SDS011;8813;54.444;18.446;2023-09-12T03:41:27;1.00;;;1.00;;
17390;SDS011;8813;54.444;18.446;2023-09-12T03:43:54;0.90;;;0.90;;
17390;SDS011;8813;54.444;18.446;2023-09-12T03:46:22;0.80;;;0.80;;
17390;SDS011;8813;54.444;18.446;2023-09-12T03:48:49;0.90;;;0.90;;
17390;SDS011;8813;54.444;18.446;2023-09-12T03:51:16;0.90;;;0.90;;
17390;SDS011;8813;54.444;18.446;2023-09-12T03:53:43;0.90;;;0.90;;
17390;SDS011;8813;54.444;18.446;2023-09-12T03:56:12;0.93;;;0.93;;
17390;SDS011;8813;54.444;18.446;2023-09-12T03:58:40;0.90;;;0.90;;
17390;SDS011;8813;54.444;18.446;2023-09-12T04:01:07;1.00;;;1.00;;
17390;SDS011;8813;54.444;18.446;2023-09-12T04:03:36;1.00;;;1.00;;
17390;SDS011;8813;54.444;18.446;2023-09-12T04:06:04;1.00;;;1.00;;
17390;SDS011;8813;54.444;18.446;2023-09-12T04:08:31;1.13;;;1.13;;
17390;SDS011;8813;54.444;18.446;2023-09-12T04:11:03;0.90;;;0.90;;
17390;SDS011;8813;54.444;18.446;2023-09-12T04:13:30;1.00;;;1.00;;
17390;SDS011;8813;54.444;18.446;2023-09-12T04:16:00;0.90;;;0.90;;
17390;SDS011;8813;54.444;18.446;2023-09-12T04:18:28;0.90;;;0.90;;
17390;SDS011;8813;54.444;18.446;2023-09-12T04:20:59;1.00;;;1.00;;
17390;SDS011;8813;54.444;18.446;2023-09-12T04:23:26;1.15;;;1.15;;
17390;SDS011;8813;54.444;18.446;2023-09-12T04:25:56;1.20;;;1.20;;
17390;SDS011;8813;54.444;18.446;2023-09-12T04:28:25;1.20;;;1.20;;
17390;SDS011;8813;54.444;18.446;2023-09-12T04:31:00;1.30;;;1.30;;
17390;SDS011;8813;54.444;18.446;2023-09-12T04:33:27;1.30;;;1.30;;
17390;SDS011;8813;54.444;18.446;2023-09-12T04:36:02;1.30;;;1.30;;
17390;SDS011;8813;54.444;18.446;2023-09-12T04:38:30;1.30;;;1.30;;
17390;SDS011;8813;54.444;18.446;2023-09-12T04:40:59;1.30;;;1.30;;
17390;SDS011;8813;54.444;18.446;2023-09-12T04:43:30;1.30;;;1.30;;
17390;SDS011;8813;54.444;18.446;2023-09-12T04:45:57;1.40;;;1.40;;
17390;SDS011;8813;54.444;18.446;2023-09-12T04:48:25;1.20;;;1.20;;
17390;SDS011;8813;54.444;18.446;2023-09-12T04:50:53;1.40;;;1.40;;
17390;SDS011;8813;54.444;18.446;2023-09-12T04:53:21;1.40;;;1.40;;
17390;SDS011;8813;54.444;18.446;2023-09-12T04:55:48;1.40;;;1.40;;
17390;SDS011;8813;54.444;18.446;2023-09-12T04:58:15;1.40;;;1.40;;
17390;SDS011;8813;54.444;18.446;2023-09-12T05:00:42;1.50;;;1.50;;
17390;SDS011;8813;54.444;18.446;2023-09-12T05:03:12;1.65;;;1.65;;
17390;SDS011;8813;54.444;18.446;2023-09-12T05:05:39;1.60;;;1.60;;
17390;SDS011;8813;54.444;18.446;2023-09-12T05:08:07;1.50;;;1.50;;
17390;SDS011;8813;54.444;18.446;2023-09-12T05:10:35;1.48;;;1.48;;
17390;SDS011;8813;54.444;18.446;2023-09-12T05:13:03;1.60;;;1.60;;
17390;SDS011;8813;54.444;18.446;2023-09-12T05:15:30;1.40;;;1.40;;
17390;SDS011;8813;54.444;18.446;2023-09-12T05:17:57;1.50;;;1.50;;
17390;SDS011;8813;54.444;18.446;2023-09-12T05:20:24;1.52;;;1.52;;
17390;SDS011;8813;54.444;18.446;2023-09-12T05:22:56;1.50;;;1.50;;
17390;SDS011;8813;54.444;18.446;2023-09-12T05:25:26;1.40;;;1.40;;
17390;SDS011;8813;54.444;18.446;2023-09-12T05:27:56;1.30;;;1.30;;
17390;SDS011;8813;54.444;18.446;2023-09-12T05:30:23;1.50;;;1.50;;
17390;SDS011;8813;54.444;18.446;2023-09-12T05:32:53;1.30;;;1.30;;
17390;SDS011;8813;54.444;18.446;2023-09-12T05:35:20;1.10;;;1.10;;
17390;SDS011;8813;54.444;18.446;2023-09-12T05:37:47;1.20;;;1.20;;
17390;SDS011;8813;54.444;18.446;2023-09-12T05:40:14;1.20;;;1.20;;
17390;SDS011;8813;54.444;18.446;2023-09-12T05:42:42;1.30;;;1.30;;
17390;SDS011;8813;54.444;18.446;2023-09-12T05:45:11;1.25;;;1.25;;
17390;SDS011;8813;54.444;18.446;2023-09-12T05:47:38;1.20;;;1.20;;
17390;SDS011;8813;54.444;18.446;2023-09-12T05:50:08;1.30;;;1.30;;
17390;SDS011;8813;54.444;18.446;2023-09-12T05:52:50;1.30;;;1.30;;
17390;SDS011;8813;54.444;18.446;2023-09-12T05:55:23;1.33;;;1.33;;
17390;SDS011;8813;54.444;18.446;2023-09-12T05:57:50;1.30;;;1.30;;
17390;SDS011;8813;54.444;18.446;2023-09-12T06:00:23;1.20;;;1.20;;
17390;SDS011;8813;54.444;18.446;2023-09-12T06:02:50;1.10;;;1.10;;
17390;SDS011;8813;54.444;18.446;2023-09-12T06:05:26;1.30;;;1.30;;
17390;SDS011;8813;54.444;18.446;2023-09-12T06:07:59;1.10;;;1.10;;
17390;SDS011;8813;54.444;18.446;2023-09-12T06:10:29;1.10;;;1.10;;
17390;SDS011;8813;54.444;18.446;2023-09-12T06:13:05;1.20;;;1.20;;
17390;SDS011;8813;54.444;18.446;2023-09-12T06:15:36;1.30;;;1.30;;
17390;SDS011;8813;54.444;18.446;2023-09-12T06:18:04;1.25;;;1.25;;
17390;SDS011;8813;54.444;18.446;2023-09-12T06:20:31;1.27;;;1.27;;
17390;SDS011;8813;54.444;18.446;2023-09-12T06:22:58;1.10;;;1.10;;
17390;SDS011;8813;54.444;18.446;2023-09-12T06:25:25;1.13;;;1.13;;
17390;SDS011;8813;54.444;18.446;2023-09-12T06:27:54;1.10;;;1.10;;
17390;SDS011;8813;54.444;18.446;2023-09-12T06:30:21;1.20;;;1.20;;
17390;SDS011;8813;54.444;18.446;2023-09-12T06:32:57;1.13;;;1.13;;
17390;SDS011;8813;54.444;18.446;2023-09-12T06:35:34;1.00;;;1.00;;
17390;SDS011;8813;54.444;18.446;2023-09-12T06:38:11;1.10;;;1.10;;
17390;SDS011;8813;54.444;18.446;2023-09-12T06:40:38;1.10;;;1.10;;
17390;SDS011;8813;54.444;18.446;2023-09-12T06:43:12;1.00;;;1.00;;
17390;SDS011;8813;54.444;18.446;2023-09-12T06:45:40;0.90;;;0.90;;
17390;SDS011;8813;54.444;18.446;2023-09-12T06:48:08;0.80;;;0.80;;
17390;SDS011;8813;54.444;18.446;2023-09-12T06:50:35;0.90;;;0.90;;
17390;SDS011;8813;54.444;18.446;2023-09-12T06:53:03;0.80;;;0.80;;
17390;SDS011;8813;54.444;18.446;2023-09-12T06:55:31;0.90;;;0.90;;
17390;SDS011;8813;54.444;18.446;2023-09-12T06:58:06;0.80;;;0.80;;
17390;SDS011;8813;54.444;18.446;2023-09-12T07:00:34;0.90;;;0.90;;
17390;SDS011;8813;54.444;18.446;2023-09-12T07:03:02;1.00;;;1.00;;
17390;SDS011;8813;54.444;18.446;2023-09-12T07:05:37;0.80;;;0.80;;
17390;SDS011;8813;54.444;18.446;2023-09-12T07:08:08;1.00;;;1.00;;
17390;SDS011;8813;54.444;18.446;2023-09-12T07:10:35;0.90;;;0.90;;
17390;SDS011;8813;54.444;18.446;2023-09-12T07:13:03;1.00;;;1.00;;
17390;SDS011;8813;54.444;18.446;2023-09-12T07:15:30;1.00;;;1.00;;
17390;SDS011;8813;54.444;18.446;2023-09-12T07:17:57;0.90;;;0.90;;
17390;SDS011;8813;54.444;18.446;2023-09-12T07:20:24;0.90;;;0.90;;
17390;SDS011;8813;54.444;18.446;2023-09-12T07:22:52;0.80;;;0.80;;
17390;SDS011;8813;54.444;18.446;2023-09-12T07:25:20;0.90;;;0.90;;
17390;SDS011;8813;54.444;18.446;2023-09-12T07:27:50;0.90;;;0.90;;
17390;SDS011;8813;54.444;18.446;2023-09-12T07:30:18;0.90;;;0.90;;
17390;SDS011;8813;54.444;18.446;2023-09-12T07:32:48;1.60;;;1.60;;
17390;SDS011;8813;54.444;18.446;2023-09-12T07:35:17;0.90;;;0.90;;
17390;SDS011;8813;54.444;18.446;2023-09-12T07:37:53;1.00;;;1.00;;
17390;SDS011;8813;54.444;18.446;2023-09-12T07:40:20;1.00;;;1.00;;
17390;SDS011;8813;54.444;18.446;2023-09-12T07:42:47;1.42;;;1.42;;
17390;SDS011;8813;54.444;18.446;2023-09-12T07:45:14;0.82;;;0.82;;
17390;SDS011;8813;54.444;18.446;2023-09-12T07:47:41;0.93;;;0.93;;
17390;SDS011;8813;54.444;18.446;2023-09-12T07:50:10;1.00;;;1.00;;
17390;SDS011;8813;54.444;18.446;2023-09-12T07:52:39;0.90;;;0.90;;
17390;SDS011;8813;54.444;18.446;2023-09-12T07:55:09;0.90;;;0.90;;
17390;SDS011;8813;54.444;18.446;2023-09-12T07:57:36;0.90;;;0.90;;
17390;SDS011;8813;54.444;18.446;2023-09-12T08:00:04;1.75;;;1.67;;
17390;SDS011;8813;54.444;18.446;2023-09-12T08:02:35;0.90;;;0.90;;
17390;SDS011;8813;54.444;18.446;2023-09-12T08:05:03;0.88;;;0.88;;
17390;SDS011;8813;54.444;18.446;2023-09-12T08:07:30;0.90;;;0.90;;
17390;SDS011;8813;54.444;18.446;2023-09-12T08:09:57;0.80;;;0.80;;
17390;SDS011;8813;54.444;18.446;2023-09-12T08:12:26;0.80;;;0.80;;
17390;SDS011;8813;54.444;18.446;2023-09-12T08:14:54;0.73;;;0.73;;
17390;SDS011;8813;54.444;18.446;2023-09-12T08:17:21;0.90;;;0.90;;
17390;SDS011;8813;54.444;18.446;2023-09-12T08:19:51;0.80;;;0.80;;
17390;SDS011;8813;54.444;18.446;2023-09-12T08:22:18;0.73;;;0.73;;
17390;SDS011;8813;54.444;18.446;2023-09-12T08:24:45;0.80;;;0.80;;
17390;SDS011;8813;54.444;18.446;2023-09-12T08:27:12;0.80;;;0.80;;
17390;SDS011;8813;54.444;18.446;2023-09-12T08:29:40;0.90;;;0.90;;
17390;SDS011;8813;54.444;18.446;2023-09-12T08:32:15;0.77;;;0.77;;
17390;SDS011;8813;54.444;18.446;2023-09-12T08:34:52;1.00;;;1.00;;
17390;SDS011;8813;54.444;18.446;2023-09-12T08:37:21;1.00;;;1.00;;
17390;SDS011;8813;54.444;18.446;2023-09-12T08:39:50;0.90;;;0.90;;
17390;SDS011;8813;54.444;18.446;2023-09-12T08:42:21;0.80;;;0.80;;
17390;SDS011;8813;54.444;18.446;2023-09-12T08:44:50;0.90;;;0.90;;
17390;SDS011;8813;54.444;18.446;2023-09-12T08:47:17;0.90;;;0.90;;
17390;SDS011;8813;54.444;18.446;2023-09-12T08:49:46;0.80;;;0.80;;
17390;SDS011;8813;54.444;18.446;2023-09-12T08:52:13;0.90;;;0.90;;
17390;SDS011;8813;54.444;18.446;2023-09-12T08:54:41;0.90;;;0.90;;
17390;SDS011;8813;54.444;18.446;2023-09-12T08:57:09;0.90;;;0.90;;
17390;SDS011;8813;54.444;18.446;2023-09-12T08:59:39;1.17;;;1.17;;
17390;SDS011;8813;54.444;18.446;2023-09-12T09:02:09;0.80;;;0.80;;
17390;SDS011;8813;54.444;18.446;2023-09-12T09:04:40;0.90;;;0.90;;
17390;SDS011;8813;54.444;18.446;2023-09-12T09:07:09;0.80;;;0.80;;
17390;SDS011;8813;54.444;18.446;2023-09-12T09:09:38;1.00;;;1.00;;
17390;SDS011;8813;54.444;18.446;2023-09-12T09:12:06;0.80;;;0.80;;
17390;SDS011;8813;54.444;18.446;2023-09-12T09:14:36;0.80;;;0.80;;
17390;SDS011;8813;54.444;18.446;2023-09-12T09:17:03;0.90;;;0.90;;
17390;SDS011;8813;54.444;18.446;2023-09-12T09:19:41;0.90;;;0.90;;
17390;SDS011;8813;54.444;18.446;2023-09-12T09:22:09;0.90;;;0.90;;
17390;SDS011;8813;54.444;18.446;2023-09-12T09:24:39;0.80;;;0.80;;
17390;SDS011;8813;54.444;18.446;2023-09-12T09:27:06;0.90;;;0.90;;
17390;SDS011;8813;54.444;18.446;2023-09-12T09:29:45;0.90;;;0.90;;
17390;SDS011;8813;54.444;18.446;2023-09-12T09:32:16;0.80;;;0.80;;
17390;SDS011;8813;54.444;18.446;2023-09-12T09:34:45;1.00;;;1.00;;
17390;SDS011;8813;54.444;18.446;2023-09-12T09:37:12;0.90;;;0.90;;
17390;SDS011;8813;54.444;18.446;2023-09-12T09:39:44;0.90;;;0.90;;
17390;SDS011;8813;54.444;18.446;2023-09-12T09:42:17;1.10;;;1.10;;
17390;SDS011;8813;54.444;18.446;2023-09-12T09:44:48;0.85;;;0.85;;
17390;SDS011;8813;54.444;18.446;2023-09-12T09:47:15;0.98;;;0.98;;
17390;SDS011;8813;54.444;18.446;2023-09-12T09:49:47;1.10;;;1.10;;
17390;SDS011;8813;54.444;18.446;2023-09-12T09:52:14;0.80;;;0.80;;
17390;SDS011;8813;54.444;18.446;2023-09-12T09:54:47;1.10;;;1.10;;
17390;SDS011;8813;54.444;18.446;2023-09-12T09:57:14;0.90;;;0.90;;
17390;SDS011;8813;54.444;18.446;2023-09-12T09:59:41;0.85;;;0.85;;
17390;SDS011;8813;54.444;18.446;2023-09-12T10:02:13;0.90;;;0.90;;
17390;SDS011;8813;54.444;18.446;2023-09-12T10:04:50;1.00;;;1.00;;
17390;SDS011;8813;54.444;18.446;2023-09-12T10:07:19;0.93;;;0.93;;
17390;SDS011;8813;54.444;18.446;2023-09-12T10:09:46;0.90;;;0.90;;
17390;SDS011;8813;54.444;18.446;2023-09-12T10:12:14;1.00;;;1.00;;
17390;SDS011;8813;54.444;18.446;2023-09-12T10:14:43;0.90;;;0.90;;
17390;SDS011;8813;54.444;18.446;2023-09-12T10:17:15;1.10;;;1.10;;
17390;SDS011;8813;54.444;18.446;2023-09-12T10:19:48;1.00;;;1.00;;
17390;SDS011;8813;54.444;18.446;2023-09-12T10:22:21;1.20;;;1.20;;
17390;SDS011;8813;54.444;18.446;2023-09-12T10:24:56;1.70;;;1.17;;
17390;SDS011;8813;54.444;18.446;2023-09-12T10:27:27;0.90;;;0.90;;
17390;SDS011;8813;54.444;18.446;2023-09-12T10:29:54;1.00;;;1.00;;
17390;SDS011;8813;54.444;18.446;2023-09-12T10:32:31;1.10;;;1.10;;
17390;SDS011;8813;54.444;18.446;2023-09-12T10:35:00;1.00;;;1.00;;
17390;SDS011;8813;54.444;18.446;2023-09-12T10:37:29;1.00;;;1.00;;
17390;SDS011;8813;54.444;18.446;2023-09-12T10:39:58;1.00;;;1.00;;
17390;SDS011;8813;54.444;18.446;2023-09-12T10:42:26;0.90;;;0.90;;
17390;SDS011;8813;54.444;18.446;2023-09-12T10:44:55;1.02;;;1.02;;
17390;SDS011;8813;54.444;18.446;2023-09-12T10:47:24;1.00;;;1.00;;
17390;SDS011;8813;54.444;18.446;2023-09-12T10:49:52;0.90;;;0.90;;
17390;SDS011;8813;54.444;18.446;2023-09-12T10:52:26;1.02;;;1.02;;
17390;SDS011;8813;54.444;18.446;2023-09-12T10:54:53;1.00;;;1.00;;
17390;SDS011;8813;54.444;18.446;2023-09-12T10:57:21;0.93;;;0.93;;
17390;SDS011;8813;54.444;18.446;2023-09-12T11:02:40;1.05;;;1.05;;
17390;SDS011;8813;54.444;18.446;2023-09-12T11:05:34;1.00;;;1.00;;
17390;SDS011;8813;54.444;18.446;2023-09-12T11:08:08;1.00;;;1.00;;
17390;SDS011;8813;54.444;18.446;2023-09-12T11:10:44;0.90;;;0.90;;
17390;SDS011;8813;54.444;18.446;2023-09-12T11:13:16;1.02;;;1.02;;
17390;SDS011;8813;54.444;18.446;2023-09-12T11:21:36;1.00;;;1.00;;
17390;SDS011;8813;54.444;18.446;2023-09-12T11:24:05;1.02;;;1.02;;
17390;SDS011;8813;54.444;18.446;2023-09-12T11:26:52;1.00;;;1.00;;
17390;SDS011;8813;54.444;18.446;2023-09-12T11:29:26;1.00;;;1.00;;
17390;SDS011;8813;54.444;18.446;2023-09-12T11:32:03;1.10;;;1.10;;
17390;SDS011;8813;54.444;18.446;2023-09-12T11:34:36;1.00;;;1.00;;
17390;SDS011;8813;54.444;18.446;2023-09-12T11:37:03;1.00;;;1.00;;
17390;SDS011;8813;54.444;18.446;2023-09-12T11:39:36;1.00;;;1.00;;
17390;SDS011;8813;54.444;18.446;2023-09-12T11:42:04;1.00;;;1.00;;
17390;SDS011;8813;54.444;18.446;2023-09-12T11:44:41;1.00;;;1.00;;
17390;SDS011;8813;54.444;18.446;2023-09-12T11:47:12;0.95;;;0.95;;
17390;SDS011;8813;54.444;18.446;2023-09-12T11:49:40;0.90;;;0.90;;
17390;SDS011;8813;54.444;18.446;2023-09-12T11:52:08;0.90;;;0.90;;
17390;SDS011;8813;54.444;18.446;2023-09-12T11:54:40;1.10;;;1.10;;
17390;SDS011;8813;54.444;18.446;2023-09-12T11:57:11;1.00;;;1.00;;
17390;SDS011;8813;54.444;18.446;2023-09-12T11:59:40;1.00;;;1.00;;
17390;SDS011;8813;54.444;18.446;2023-09-12T12:02:10;1.00;;;1.00;;
17390;SDS011;8813;54.444;18.446;2023-09-12T12:04:37;1.00;;;1.00;;
17390;SDS011;8813;54.444;18.446;2023-09-12T12:07:04;1.00;;;1.00;;
17390;SDS011;8813;54.444;18.446;2023-09-12T12:09:32;1.00;;;1.00;;
17390;SDS011;8813;54.444;18.446;2023-09-12T12:12:08;1.10;;;1.10;;
17390;SDS011;8813;54.444;18.446;2023-09-12T12:14:36;1.00;;;1.00;;
17390;SDS011;8813;54.444;18.446;2023-09-12T12:17:13;1.00;;;1.00;;
17390;SDS011;8813;54.444;18.446;2023-09-12T12:19:45;0.90;;;0.90;;
17390;SDS011;8813;54.444;18.446;2023-09-12T12:22:12;1.00;;;1.00;;
17390;SDS011;8813;54.444;18.446;2023-09-12T12:24:46;1.00;;;1.00;;
17390;SDS011;8813;54.444;18.446;2023-09-12T12:27:15;1.10;;;1.10;;
17390;SDS011;8813;54.444;18.446;2023-09-12T12:29:48;1.00;;;1.00;;
17390;SDS011;8813;54.444;18.446;2023-09-12T12:32:18;0.90;;;0.90;;
17390;SDS011;8813;54.444;18.446;2023-09-12T12:34:54;1.10;;;1.10;;
17390;SDS011;8813;54.444;18.446;2023-09-12T12:37:32;0.90;;;0.90;;
17390;SDS011;8813;54.444;18.446;2023-09-12T12:40:02;1.00;;;1.00;;
17390;SDS011;8813;54.444;18.446;2023-09-12T12:42:34;1.00;;;1.00;;
17390;SDS011;8813;54.444;18.446;2023-09-12T12:45:10;1.00;;;1.00;;
17390;SDS011;8813;54.444;18.446;2023-09-12T12:47:38;1.08;;;1.08;;
17390;SDS011;8813;54.444;18.446;2023-09-12T12:50:10;1.00;;;1.00;;
17390;SDS011;8813;54.444;18.446;2023-09-12T12:52:46;1.00;;;1.00;;
17390;SDS011;8813;54.444;18.446;2023-09-12T12:55:15;1.00;;;1.00;;
17390;SDS011;8813;54.444;18.446;2023-09-12T12:57:47;0.95;;;0.95;;
17390;SDS011;8813;54.444;18.446;2023-09-12T13:00:15;0.90;;;0.90;;
17390;SDS011;8813;54.444;18.446;2023-09-12T13:02:51;0.98;;;0.98;;
17390;SDS011;8813;54.444;18.446;2023-09-12T13:05:19;0.90;;;0.90;;
17390;SDS011;8813;54.444;18.446;2023-09-12T13:08:12;0.90;;;0.90;;
17390;SDS011;8813;54.444;18.446;2023-09-12T13:10:53;1.30;;;1.30;;
17390;SDS011;8813;54.444;18.446;2023-09-12T13:13:24;1.00;;;1.00;;
17390;SDS011;8813;54.444;18.446;2023-09-12T13:15:58;1.13;;;1.13;;
17390;SDS011;8813;54.444;18.446;2023-09-12T13:18:26;1.00;;;1.00;;
17390;SDS011;8813;54.444;18.446;2023-09-12T13:20:53;1.10;;;1.10;;
17390;SDS011;8813;54.444;18.446;2023-09-12T13:23:21;1.00;;;1.00;;
17390;SDS011;8813;54.444;18.446;2023-09-12T13:25:49;0.90;;;0.90;;
17390;SDS011;8813;54.444;18.446;2023-09-12T13:28:17;1.00;;;1.00;;
17390;SDS011;8813;54.444;18.446;2023-09-12T13:30:46;0.90;;;0.90;;
17390;SDS011;8813;54.444;18.446;2023-09-12T13:33:13;0.98;;;0.98;;
17390;SDS011;8813;54.444;18.446;2023-09-12T13:35:41;1.00;;;1.00;;
17390;SDS011;8813;54.444;18.446;2023-09-12T13:38:08;0.90;;;0.90;;
17390;SDS011;8813;54.444;18.446;2023-09-12T13:40:37;0.90;;;0.90;;
17390;SDS011;8813;54.444;18.446;2023-09-12T13:43:09;1.00;;;1.00;;
17390;SDS011;8813;54.444;18.446;2023-09-12T13:45:36;0.90;;;0.90;;
17390;SDS011;8813;54.444;18.446;2023-09-12T13:48:05;0.80;;;0.80;;
17390;SDS011;8813;54.444;18.446;2023-09-12T13:50:36;0.80;;;0.80;;
17390;SDS011;8813;54.444;18.446;2023-09-12T13:53:03;0.80;;;0.80;;
17390;SDS011;8813;54.444;18.446;2023-09-12T13:55:32;1.00;;;1.00;;
17390;SDS011;8813;54.444;18.446;2023-09-12T13:58:01;0.80;;;0.80;;
17390;SDS011;8813;54.444;18.446;2023-09-12T14:00:29;0.80;;;0.80;;
17390;SDS011;8813;54.444;18.446;2023-09-12T14:02:56;0.90;;;0.90;;
17390;SDS011;8813;54.444;18.446;2023-09-12T14:05:25;0.80;;;0.80;;
17390;SDS011;8813;54.444;18.446;2023-09-12T14:07:52;0.95;;;0.95;;
17390;SDS011;8813;54.444;18.446;2023-09-12T14:10:20;0.90;;;0.90;;
17390;SDS011;8813;54.444;18.446;2023-09-12T14:12:47;0.80;;;0.80;;
17390;SDS011;8813;54.444;18.446;2023-09-12T14:15:14;0.80;;;0.80;;
17390;SDS011;8813;54.444;18.446;2023-09-12T14:17:41;0.90;;;0.90;;
17390;SDS011;8813;54.444;18.446;2023-09-12T14:20:11;0.70;;;0.70;;
17390;SDS011;8813;54.444;18.446;2023-09-12T14:22:42;0.90;;;0.90;;
17390;SDS011;8813;54.444;18.446;2023-09-12T14:25:10;0.80;;;0.80;;
17390;SDS011;8813;54.444;18.446;2023-09-12T14:27:40;0.80;;;0.80;;
17390;SDS011;8813;54.444;18.446;2023-09-12T14:30:09;0.70;;;0.70;;
17390;SDS011;8813;54.444;18.446;2023-09-12T14:32:38;0.80;;;0.80;;
17390;SDS011;8813;54.444;18.446;2023-09-12T14:35:08;0.70;;;0.70;;
17390;SDS011;8813;54.444;18.446;2023-09-12T14:37:35;0.70;;;0.70;;
17390;SDS011;8813;54.444;18.446;2023-09-12T14:40:04;0.70;;;0.70;;
17390;SDS011;8813;54.444;18.446;2023-09-12T14:42:32;0.80;;;0.80;;
17390;SDS011;8813;54.444;18.446;2023-09-12T14:44:59;0.60;;;0.60;;
17390;SDS011;8813;54.444;18.446;2023-09-12T14:47:26;0.70;;;0.70;;
17390;SDS011;8813;54.444;18.446;2023-09-12T14:49:55;0.75;;;0.75;;
17390;SDS011;8813;54.444;18.446;2023-09-12T14:52:23;0.90;;;0.90;;
17390;SDS011;8813;54.444;18.446;2023-09-12T14:54:51;0.90;;;0.90;;
17390;SDS011;8813;54.444;18.446;2023-09-12T14:57:19;0.80;;;0.80;;
17390;SDS011;8813;54.444;18.446;2023-09-12T14:59:48;0.80;;;0.80;;
17390;SDS011;8813;54.444;18.446;2023-09-12T15:02:21;0.80;;;0.80;;
17390;SDS011;8813;54.444;18.446;2023-09-12T15:04:49;0.80;;;0.80;;
17390;SDS011;8813;54.444;18.446;2023-09-12T15:07:17;0.70;;;0.70;;
17390;SDS011;8813;54.444;18.446;2023-09-12T15:09:48;0.80;;;0.80;;
17390;SDS011;8813;54.444;18.446;2023-09-12T15:12:15;0.77;;;0.77;;